Data for 03/18/2014

Time Sea-Level Adjusted Pressure Absolute Pressure Temperature Relative Humidity Dew Point   
(mb) (inHg) (mb) (inHg) (C) (F) (%) (C) (F)
00:05 1015 29.97 844 24.92 -2.7 27.2 96 -3.3 26.1
00:10 1015 29.97 844 24.92 -2.7 27.2 96 -3.3 26.1
00:15 1015 29.97 844 24.92 -2.7 27.2 96 -3.3 26.1
00:20 1015 29.97 844 24.92 -2.7 27.1 96 -3.3 26
00:25 1015 29.97 844 24.92 -2.7 27.2 96 -3.3 26.1
00:30 1015 29.97 845 24.95 -2.7 27.1 96 -3.3 26.1
00:35 1015 29.97 845 24.95 -2.8 27 96 -3.4 26
00:40 1015 29.97 845 24.95 -2.8 27 95 -3.4 25.8
00:45 1015 29.97 845 24.95 -2.8 26.9 96 -3.4 25.8
00:50 1015 29.97 845 24.95 -2.8 26.9 96 -3.4 25.9
00:55 1015 29.97 845 24.95 -2.8 26.9 96 -3.4 25.9
01:00 1016 30 845 24.95 -2.8 27 96 -3.4 25.9
01:05 1016 30 845 24.95 -2.8 26.9 96 -3.4 25.9
01:10 1016 30 845 24.95 -2.8 26.9 96 -3.4 25.8
01:15 1016 30 845 24.95 -2.8 26.9 96 -3.4 25.9
01:20 1016 30 845 24.95 -2.9 26.8 96 -3.5 25.8
01:25 1016 30 845 24.95 -2.9 26.8 96 -3.5 25.8
01:30 1016 30 845 24.95 -2.9 26.8 96 -3.5 25.8
01:35 1016 30 845 24.95 -2.9 26.8 96 -3.5 25.7
01:40 1016 30 845 24.95 -2.9 26.7 96 -3.5 25.7
01:45 1016 30 845 24.95 -2.9 26.8 96 -3.5 25.7
01:50 1016 30 845 24.95 -2.9 26.8 96 -3.5 25.7
01:55 1016 30 845 24.95 -2.9 26.7 96 -3.5 25.7
02:00 1016 30 845 24.95 -2.9 26.7 96 -3.5 25.6
02:05 1016 30 845 24.95 -3 26.7 96 -3.6 25.5
02:10 1016 30 845 24.95 -3 26.6 96 -3.6 25.5
02:15 1016 30 845 24.95 -3 26.7 95 -3.6 25.5
02:20 1016 30 845 24.95 -3 26.5 95 -3.7 25.4
02:25 1016 30 845 24.95 -3.1 26.5 95 -3.7 25.3
02:30 1016 30 845 24.95 -3.1 26.4 95 -3.8 25.2
02:35 1016 30 845 24.95 -3.1 26.4 95 -3.8 25.2
02:40 1016 30 845 24.95 -3.1 26.4 95 -3.8 25.2
02:45 1016 30 845 24.95 -3.2 26.3 95 -3.8 25.1
02:50 1016 30 845 24.95 -3.2 26.3 95 -3.8 25.1
02:55 1016 30 845 24.95 -3.2 26.3 95 -3.9 25
03:00 1016 30 845 24.95 -3.2 26.2 95 -3.9 24.9
03:05 1016 30 845 24.95 -3.3 26.1 95 -4 24.9
03:10 1016 30 845 24.95 -3.2 26.2 95 -3.9 24.9
03:15 1016 30 846 24.98 -3.3 26.1 95 -4 24.9
03:20 1016 30 846 24.98 -3.3 26.1 95 -4 24.8
03:25 1016 30 846 24.98 -3.3 26.1 94 -4.1 24.7
03:30 1016 30 846 24.98 -3.3 26 95 -4.1 24.6
03:35 1016 30 846 24.98 -3.4 26 95 -4.1 24.6
03:40 1016 30 846 24.98 -3.4 26 95 -4.1 24.6
03:45 1016 30 846 24.98 -3.4 25.9 94 -4.2 24.5
03:50 1016 30 846 24.98 -3.4 25.9 94 -4.2 24.4
03:55 1016 30 846 24.98 -3.4 25.9 94 -4.2 24.4
04:00 1016 30 846 24.98 -3.4 26 94 -4.2 24.5
04:05 1016 30 846 24.98 -3.4 25.9 93 -4.3 24.2
04:10 1016 30 846 24.98 -3.5 25.7 93 -4.4 24
04:15 1016 30 846 24.98 -3.5 25.7 93 -4.5 23.9
04:20 1017 30.03 846 24.98 -3.6 25.6 93 -4.6 23.8
04:25 1017 30.03 846 24.98 -3.5 25.6 92 -4.6 23.6
04:30 1017 30.03 846 24.98 -3.5 25.6 92 -4.7 23.5
04:35 1017 30.03 846 24.98 -3.6 25.6 91 -4.8 23.3
04:40 1017 30.03 846 24.98 -3.6 25.5 90 -5.1 22.9
04:45 1017 30.03 846 24.98 -3.6 25.4 89 -5.2 22.6
04:50 1017 30.03 846 24.98 -3.6 25.5 89 -5.1 22.8
04:55 1017 30.03 846 24.98 -3.6 25.6 88 -5.2 22.6
05:00 1017 30.03 846 24.98 -3.5 25.7 88 -5.3 22.5
05:05 1017 30.03 846 24.98 -3.5 25.7 87 -5.3 22.4
05:10 1017 30.03 846 24.98 -3.4 25.8 86 -5.4 22.2
05:15 1017 30.03 846 24.98 -3.4 25.9 85 -5.6 21.9
05:20 1017 30.03 846 24.98 -3.3 26 84 -5.6 21.9
05:25 1017 30.03 846 24.98 -3.3 26 84 -5.6 21.8
05:30 1017 30.03 846 24.98 -3.3 26.1 83 -5.8 21.6
05:35 1017 30.03 846 24.98 -3.3 26 84 -5.7 21.7
05:40 1017 30.03 846 24.98 -3.5 25.7 84 -5.8 21.6
05:45 1017 30.03 846 24.98 -3.5 25.6 84 -5.9 21.4
05:50 1017 30.03 846 24.98 -3.6 25.5 85 -5.8 21.6
05:55 1017 30.03 846 24.98 -3.6 25.4 84 -6 21.2
06:00 1017 30.03 846 24.98 -3.5 25.7 82 -6.1 21.1
06:05 1017 30.03 846 24.98 -3.5 25.8 82 -6.1 21
06:10 1017 30.03 846 24.98 -3.5 25.7 82 -6.1 21
06:15 1017 30.03 847 25.01 -3.3 26 81 -6.1 21
06:20 1017 30.03 847 25.01 -3.3 26.1 81 -6 21.1
06:25 1017 30.03 847 25.01 -3.2 26.2 81 -6.1 21.1
06:30 1017 30.03 847 25.01 -3.2 26.3 82 -5.9 21.5
06:35 1017 30.03 847 25.01 -3 26.6 81 -5.9 21.4
06:40 1017 30.03 847 25.01 -3.1 26.5 81 -5.9 21.3
06:45 1017 30.03 847 25.01 -3.2 26.2 81 -6 21.2
06:50 1018 30.06 847 25.01 -3.2 26.3 80 -6.2 20.8
06:55 1018 30.06 847 25.01 -3 26.6 79 -6.1 21
07:00 1018 30.06 847 25.01 -2.9 26.8 77 -6.4 20.6
07:05 1018 30.06 847 25.01 -2.8 26.9 78 -6.2 20.9
07:10 1018 30.06 847 25.01 -2.8 27 79 -6 21.3
07:15 1018 30.06 847 25.01 -2.8 26.9 80 -5.9 21.4
07:20 1018 30.06 847 25.01 -3 26.6 80 -6 21.2
07:25 1018 30.06 847 25.01 -3.1 26.5 80 -6.1 21
07:30 1018 30.06 847 25.01 -3 26.6 79 -6.2 20.8
07:35 1018 30.06 847 25.01 -2.9 26.8 78 -6.2 20.8
07:40 1018 30.06 847 25.01 -2.8 26.9 77 -6.2 20.8
07:45 1018 30.06 847 25.01 -2.8 27 79 -6 21.2
07:50 1018 30.06 847 25.01 -2.9 26.8 79 -6 21.3
07:55 1018 30.06 847 25.01 -2.9 26.8 79 -6 21.2
08:00 1018 30.06 847 25.01 -2.9 26.8 79 -6.1 21
08:05 1018 30.06 847 25.01 -2.8 26.9 78 -6.2 20.9
08:10 1018 30.06 847 25.01 -2.6 27.2 78 -6 21.1
08:15 1018 30.06 847 25.01 -2.4 27.7 76 -6.1 21
08:20 1018 30.06 848 25.04 -2.3 27.8 75 -6.2 20.8
08:25 1018 30.06 848 25.04 -2.2 28 75 -6 21.2
08:30 1018 30.06 848 25.04 -2 28.4 76 -5.7 21.7
08:35 1018 30.06 848 25.04 -2.1 28.3 75 -5.9 21.4
08:40 1019 30.09 848 25.04 -2 28.3 73 -6.2 20.8
08:45 1019 30.09 848 25.04 -2 28.4 71 -6.6 20.2
08:50 1019 30.09 848 25.04 -1.9 28.7 69 -6.8 19.7
08:55 1019 30.09 848 25.04 -1.9 28.6 69 -6.9 19.5
09:00 1019 30.09 848 25.04 -1.9 28.5 70 -6.7 20
09:05 1019 30.09 848 25.04 -1.8 28.8 70 -6.7 20
09:10 1019 30.09 848 25.04 -1.5 29.3 67 -6.9 19.6
09:15 1019 30.09 848 25.04 -1.3 29.6 69 -6.2 20.8
09:20 1019 30.09 848 25.04 -1.6 29.2 70 -6.4 20.6
09:25 1019 30.09 848 25.04 -1.3 29.7 67 -6.6 20.2
09:30 1019 30.09 848 25.04 -0.7 30.8 66 -6.3 20.7
09:35 1019 30.09 848 25.04 -0.3 31.5 62 -6.8 19.8
09:40 1019 30.09 848 25.04 -0.3 31.5 61 -7 19.4
09:45 1019 30.09 848 25.04 -0.4 31.3 63 -6.6 20.1
09:50 1019 30.09 848 25.04 -0.5 31 63 -6.8 19.7
09:55 1019 30.09 848 25.04 -0.6 30.9 62 -7 19.5
10:00 1019 30.09 848 25.04 -0.8 30.6 64 -6.8 19.8
10:05 1019 30.09 848 25.04 -0.9 30.4 65 -6.7 19.9
10:10 1019 30.09 848 25.04 -0.8 30.6 65 -6.6 20.1
10:15 1019 30.09 848 25.04 -0.9 30.4 64 -6.8 19.7
10:20 1019 30.09 849 25.07 -0.9 30.4 65 -6.7 20
10:25 1019 30.09 849 25.07 -0.8 30.5 65 -6.7 20
10:30 1019 30.09 849 25.07 -0.9 30.3 65 -6.7 19.9
10:35 1019 30.09 849 25.07 -1.1 30.1 65 -6.9 19.7
10:40 1019 30.09 849 25.07 -0.9 30.4 62 -7.3 18.9
10:45 1019 30.09 849 25.07 -0.6 30.8 60 -7.5 18.6
10:50 1019 30.09 849 25.07 -0.6 30.9 60 -7.4 18.7
10:55 1019 30.09 849 25.07 -0.3 31.5 58 -7.6 18.2
11:00 1019 30.09 849 25.07 0.1 32.2 57 -7.5 18.5
11:05 1020 30.12 849 25.07 0.2 32.4 56 -7.5 18.5
11:10 1020 30.12 849 25.07 0.6 33.1 53 -7.8 17.9
11:15 1020 30.12 849 25.07 1.3 34.4 50 -7.9 17.8
11:20 1020 30.12 849 25.07 0.9 33.7 52 -7.7 18.1
11:25 1019 30.09 849 25.07 1.3 34.3 51 -7.7 18.1
11:30 1019 30.09 849 25.07 1.1 34 53 -7.4 18.7
11:35 1020 30.12 849 25.07 0.8 33.5 51 -8.3 17
11:40 1019 30.09 849 25.07 0.5 32.8 53 -8 17.6
11:45 1019 30.09 849 25.07 0.4 32.8 52 -8.4 16.9
11:50 1019 30.09 849 25.07 0.5 33 51 -8.5 16.8
11:55 1019 30.09 849 25.07 0.8 33.4 53 -7.7 18.1
12:00 1019 30.09 848 25.04 1.3 34.3 48 -8.5 16.7
12:05 1019 30.09 848 25.04 1.4 34.4 50 -8 17.6
12:10 1019 30.09 848 25.04 1.1 34 51 -8.1 17.5
12:15 1019 30.09 848 25.04 1.1 34 50 -8.1 17.4
12:20 1019 30.09 848 25.04 1.5 34.7 46 -8.8 16.1
12:25 1019 30.09 848 25.04 1.6 34.9 46 -8.9 15.9
12:30 1019 30.09 848 25.04 0.7 33.3 47 -9.4 15.1
12:35 1019 30.09 848 25.04 0.9 33.6 47 -9.2 15.4
12:40 1019 30.09 848 25.04 0.6 33.2 50 -8.6 16.5
12:45 1019 30.09 848 25.04 0.8 33.5 48 -8.9 16
12:50 1019 30.09 848 25.04 0.7 33.2 48 -9.2 15.5
12:55 1019 30.09 848 25.04 1 33.7 48 -8.9 16
13:00 1019 30.09 848 25.04 0.9 33.6 50 -8.4 16.8
13:05 1019 30.09 848 25.04 1 33.7 47 -9 15.7
13:10 1019 30.09 848 25.04 1.2 34.2 45 -9.4 15.2
13:15 1019 30.09 848 25.04 1.3 34.3 47 -8.8 16.1
13:20 1019 30.09 848 25.04 1.1 34 46 -9.2 15.5
13:25 1018 30.06 848 25.04 1.2 34.2 46 -9 15.7
13:30 1018 30.06 848 25.04 1.3 34.3 46 -9.1 15.7
13:35 1018 30.06 848 25.04 2.1 35.7 42 -9.5 14.9
13:40 1018 30.06 848 25.04 1.6 34.8 45 -9.2 15.4
13:45 1018 30.06 847 25.01 1.4 34.5 48 -8.6 16.6
13:50 1018 30.06 847 25.01 1.7 35.1 47 -8.4 16.8
13:55 1018 30.06 847 25.01 1.6 34.8 45 -9.1 15.7
14:00 1018 30.06 847 25.01 1.4 34.5 48 -8.3 17
14:05 1018 30.06 847 25.01 1.4 34.6 47 -8.8 16.2
14:10 1018 30.06 847 25.01 1.3 34.3 46 -9.2 15.5
14:15 1018 30.06 847 25.01 1.3 34.3 45 -9.5 14.9
14:20 1018 30.06 847 25.01 1.8 35.3 45 -9 15.8
14:25 1018 30.06 847 25.01 2.4 36.3 43 -8.9 16
14:30 1018 30.06 847 25.01 2.2 35.9 43 -9.1 15.6
14:35 1018 30.06 847 25.01 1.8 35.2 45 -9 15.7
14:40 1018 30.06 847 25.01 2.3 36.1 41 -9.6 14.8
14:45 1018 30.06 847 25.01 2.2 35.9 44 -8.9 16
14:50 1018 30.06 847 25.01 2.6 36.6 43 -8.7 16.3
14:55 1018 30.06 847 25.01 2.6 36.7 42 -8.9 15.9
15:00 1018 30.06 847 25.01 2 35.6 43 -9.2 15.5
15:05 1018 30.06 847 25.01 2.5 36.5 41 -9.3 15.2
15:10 1018 30.06 847 25.01 3.3 37.9 39 -9.4 15
15:15 1018 30.06 847 25.01 3.4 38.1 41 -8.7 16.3
15:20 1018 30.06 847 25.01 3.6 38.5 38 -9.4 15.2
15:25 1018 30.06 847 25.01 3.8 38.9 37 -9.5 14.9
15:30 1018 30.06 847 25.01 3.8 38.8 39 -8.9 15.9
15:35 1018 30.06 847 25.01 4 39.2 37 -9.3 15.2
15:40 1018 30.06 847 25.01 3.7 38.7 41 -8.4 16.8
15:45 1018 30.06 847 25.01 2.9 37.1 43 -8.4 16.8
15:50 1018 30.06 847 25.01 2.8 37 43 -8.7 16.3
15:55 1018 30.06 847 25.01 3 37.5 42 -8.5 16.6
16:00 1018 30.06 847 25.01 3.3 38 39 -9.3 15.2
16:05 1018 30.06 847 25.01 3.3 37.9 39 -9.4 15.1
16:10 1018 30.06 847 25.01 3.3 37.9 42 -8.4 16.8
16:15 1018 30.06 847 25.01 2.6 36.7 44 -8.4 17
16:20 1018 30.06 847 25.01 2 35.6 47 -8.2 17.2
16:25 1018 30.06 847 25.01 2.3 36.2 43 -9 15.8
16:30 1018 30.06 847 25.01 3.2 37.7 41 -9 15.8
16:35 1018 30.06 847 25.01 3 37.4 43 -8.3 17
16:40 1018 30.06 847 25.01 2.9 37.3 41 -8.9 15.9
16:45 1018 30.06 847 25.01 3.4 38.1 41 -8.6 16.5
16:50 1018 30.06 847 25.01 3.9 39.1 40 -8.3 17
16:55 1018 30.06 847 25.01 3.9 39.1 40 -8.4 16.9
17:00 1018 30.06 847 25.01 3.5 38.3 42 -8.2 17.2
17:05 1018 30.06 847 25.01 3.3 37.9 41 -8.6 16.5
17:10 1018 30.06 847 25.01 2.7 36.8 44 -8.5 16.7
17:15 1018 30.06 847 25.01 2.5 36.4 44 -8.5 16.7
17:20 1018 30.06 847 25.01 2.1 35.8 46 -8.4 16.8
17:25 1018 30.06 847 25.01 2.3 36.1 44 -8.6 16.4
17:30 1018 30.06 847 25.01 2.1 35.8 46 -8.2 17.2
17:35 1018 30.06 847 25.01 1.9 35.5 48 -7.9 17.7
17:40 1018 30.06 847 25.01 1.7 35 48 -8.3 17
17:45 1018 30.06 847 25.01 1.5 34.7 48 -8.3 17.1
17:50 1018 30.06 847 25.01 1.4 34.5 47 -8.6 16.6
17:55 1018 30.06 847 25.01 1.4 34.5 51 -7.8 18
18:00 1018 30.06 847 25.01 1.2 34.2 51 -7.7 18.1
18:05 1018 30.06 847 25.01 1 33.8 51 -8.2 17.3
18:10 1018 30.06 847 25.01 0.8 33.5 51 -8.2 17.2
18:15 1018 30.06 847 25.01 0.8 33.5 52 -7.9 17.8
18:20 1018 30.06 847 25.01 0.9 33.6 51 -8 17.6
18:25 1018 30.06 847 25.01 0.9 33.7 52 -7.8 18
18:30 1018 30.06 848 25.04 0.9 33.6 52 -7.8 17.9
18:35 1018 30.06 848 25.04 0.9 33.7 52 -7.9 17.7
18:40 1018 30.06 848 25.04 0.9 33.6 55 -7.2 19.1
18:45 1018 30.06 848 25.04 0.9 33.6 54 -7.5 18.6
18:50 1019 30.09 848 25.04 0.9 33.7 53 -7.6 18.3
18:55 1018 30.06 848 25.04 0.8 33.5 50 -8.3 17
19:00 1019 30.09 848 25.04 0.8 33.5 54 -7.5 18.6
19:05 1019 30.09 848 25.04 0.9 33.6 55 -7.3 18.9
19:10 1019 30.09 848 25.04 0.7 33.3 56 -7.1 19.2
19:15 1019 30.09 848 25.04 0.8 33.4 53 -7.7 18.1
19:20 1019 30.09 848 25.04 0.9 33.6 51 -8.3 17.1
19:25 1019 30.09 848 25.04 0.9 33.7 51 -8 17.5
19:30 1019 30.09 848 25.04 0.8 33.4 54 -7.5 18.5
19:35 1019 30.09 848 25.04 0 32.1 56 -7.7 18.1
19:40 1019 30.09 848 25.04 -0 31.9 55 -8.1 17.4
19:45 1019 30.09 848 25.04 -0.1 31.9 55 -8 17.6
19:50 1019 30.09 848 25.04 -0.1 31.8 55 -8.2 17.3
19:55 1019 30.09 848 25.04 -0.3 31.5 56 -8.1 17.4
20:00 1019 30.09 848 25.04 -0.3 31.4 54 -8.4 16.8
20:05 1019 30.09 848 25.04 -0.2 31.6 53 -8.6 16.5
20:10 1019 30.09 848 25.04 -0.2 31.6 52 -8.8 16.1
20:15 1019 30.09 848 25.04 -0.2 31.6 53 -8.6 16.5
20:20 1019 30.09 848 25.04 -0.3 31.4 54 -8.5 16.7
20:25 1019 30.09 848 25.04 -0.5 31.2 55 -8.5 16.7
20:30 1019 30.09 849 25.07 -0.5 31.1 55 -8.4 16.8
20:35 1019 30.09 849 25.07 -0.7 30.8 56 -8.4 16.9
20:40 1019 30.09 849 25.07 -0.9 30.4 57 -8.5 16.8
20:45 1019 30.09 849 25.07 -1.1 30 57 -8.6 16.5
20:50 1019 30.09 849 25.07 -1.3 29.7 58 -8.6 16.6
20:55 1019 30.09 849 25.07 -1.4 29.5 58 -8.6 16.6
21:00 1019 30.09 849 25.07 -1.6 29.1 58 -8.7 16.3
21:05 1019 30.09 849 25.07 -1.8 28.8 59 -8.8 16.2
21:10 1019 30.09 849 25.07 -1.8 28.7 59 -8.9 16
21:15 1019 30.09 849 25.07 -1.8 28.7 57 -9.2 15.5
21:20 1019 30.09 849 25.07 -3 26.7 63 -9.1 15.7
21:25 1020 30.12 849 25.07 -3.5 25.6 63 -9.6 14.7
21:30 1020 30.12 849 25.07 -3 26.6 61 -9.5 15
21:35 1020 30.12 849 25.07 -2.6 27.3 59 -9.5 15
21:40 1020 30.12 849 25.07 -2.3 27.9 59 -9.3 15.3
21:45 1020 30.12 849 25.07 -2.3 27.9 58 -9.4 15.1
21:50 1020 30.12 849 25.07 -2.6 27.3 59 -9.5 14.9
21:55 1020 30.12 849 25.07 -3.8 25.2 62 -9.9 14.1
22:00 1020 30.12 849 25.07 -4.1 24.6 63 -10.1 13.9
22:05 1020 30.12 849 25.07 -3.9 24.9 63 -10 14.1
22:10 1020 30.12 849 25.07 -3.3 26 60 -9.9 14.1
22:15 1020 30.12 849 25.07 -3 26.6 60 -9.8 14.3
22:20 1020 30.12 849 25.07 -2.9 26.7 59 -9.8 14.3
22:25 1019 30.09 849 25.07 -2.9 26.7 60 -9.8 14.4
22:30 1019 30.09 849 25.07 -3.1 26.3 61 -9.6 14.7
22:35 1019 30.09 849 25.07 -4 24.8 62 -10.2 13.6
22:40 1019 30.09 849 25.07 -4.4 24.1 62 -10.6 13
22:45 1019 30.09 849 25.07 -4.1 24.7 61 -10.6 13
22:50 1019 30.09 849 25.07 -4 24.8 62 -10.3 13.4
22:55 1019 30.09 849 25.07 -4.8 23.4 66 -10.3 13.5
23:00 1019 30.09 849 25.07 -5 23.1 65 -10.5 13.1
23:05 1020 30.12 849 25.07 -4.7 23.5 64 -10.6 13
23:10 1019 30.09 849 25.07 -4.7 23.6 63 -10.6 12.9
23:15 1019 30.09 849 25.07 -4.1 24.5 62 -10.3 13.4
23:20 1019 30.09 849 25.07 -3.8 25.2 61 -10.3 13.4
23:25 1019 30.09 849 25.07 -3.4 25.8 60 -10.2 13.7
23:30 1019 30.09 849 25.07 -3.4 25.8 61 -10 14.1
23:35 1019 30.09 849 25.07 -4.2 24.4 65 -9.8 14.4
23:40 1019 30.09 849 25.07 -5 22.9 68 -10 14
23:45 1019 30.09 849 25.07 -4.9 23.2 68 -10 14
23:50 1019 30.09 849 25.07 -4.8 23.3 67 -10.1 13.8
23:55 1019 30.09 849 25.07 -4.9 23.2 67 -10 14
24:00 1019 30.09 849 25.07 -5.1 22.8 68 -10 13.9